sensor_id;sensor_type;location;lat;lon;timestamp;P1;durP1;ratioP1;P2;durP2;ratioP2
60730;SDS011;46580;52.114;11.674;2023-05-29T00:00:19;8.97;;;3.20;;
60730;SDS011;46580;52.114;11.674;2023-05-29T00:02:48;7.67;;;3.50;;
60730;SDS011;46580;52.114;11.674;2023-05-29T00:05:14;7.13;;;3.03;;
60730;SDS011;46580;52.114;11.674;2023-05-29T00:07:40;9.43;;;2.83;;
60730;SDS011;46580;52.114;11.674;2023-05-29T00:10:06;10.73;;;3.33;;
60730;SDS011;46580;52.114;11.674;2023-05-29T00:12:32;6.73;;;2.97;;
60730;SDS011;46580;52.114;11.674;2023-05-29T00:14:57;5.47;;;3.10;;
60730;SDS011;46580;52.114;11.674;2023-05-29T00:17:23;6.77;;;3.20;;
60730;SDS011;46580;52.114;11.674;2023-05-29T00:19:48;9.60;;;3.53;;
60730;SDS011;46580;52.114;11.674;2023-05-29T00:22:14;12.53;;;3.40;;
60730;SDS011;46580;52.114;11.674;2023-05-29T00:24:39;6.63;;;3.07;;
60730;SDS011;46580;52.114;11.674;2023-05-29T00:27:04;7.83;;;3.27;;
60730;SDS011;46580;52.114;11.674;2023-05-29T00:29:30;5.50;;;2.87;;
60730;SDS011;46580;52.114;11.674;2023-05-29T00:31:58;6.73;;;3.00;;
60730;SDS011;46580;52.114;11.674;2023-05-29T00:34:23;6.13;;;2.83;;
60730;SDS011;46580;52.114;11.674;2023-05-29T00:36:48;11.17;;;3.17;;
60730;SDS011;46580;52.114;11.674;2023-05-29T00:39:14;7.63;;;3.23;;
60730;SDS011;46580;52.114;11.674;2023-05-29T00:41:39;9.47;;;2.90;;
60730;SDS011;46580;52.114;11.674;2023-05-29T00:44:05;5.83;;;2.70;;
60730;SDS011;46580;52.114;11.674;2023-05-29T00:46:31;6.00;;;2.77;;
60730;SDS011;46580;52.114;11.674;2023-05-29T00:48:57;7.80;;;3.43;;
60730;SDS011;46580;52.114;11.674;2023-05-29T00:51:29;7.40;;;2.63;;
60730;SDS011;46580;52.114;11.674;2023-05-29T00:53:54;4.90;;;3.23;;
60730;SDS011;46580;52.114;11.674;2023-05-29T00:56:20;6.33;;;2.97;;
60730;SDS011;46580;52.114;11.674;2023-05-29T00:58:49;7.20;;;2.90;;
60730;SDS011;46580;52.114;11.674;2023-05-29T01:01:17;7.80;;;3.00;;
60730;SDS011;46580;52.114;11.674;2023-05-29T01:03:42;6.07;;;3.10;;
60730;SDS011;46580;52.114;11.674;2023-05-29T01:06:08;5.40;;;2.93;;
60730;SDS011;46580;52.114;11.674;2023-05-29T01:08:35;7.57;;;3.43;;
60730;SDS011;46580;52.114;11.674;2023-05-29T01:11:18;8.67;;;3.43;;
60730;SDS011;46580;52.114;11.674;2023-05-29T01:13:45;6.77;;;3.00;;
60730;SDS011;46580;52.114;11.674;2023-05-29T01:16:19;8.03;;;3.20;;
60730;SDS011;46580;52.114;11.674;2023-05-29T01:18:57;5.67;;;2.90;;
60730;SDS011;46580;52.114;11.674;2023-05-29T01:21:31;6.77;;;3.20;;
60730;SDS011;46580;52.114;11.674;2023-05-29T01:24:22;6.67;;;3.13;;
60730;SDS011;46580;52.114;11.674;2023-05-29T01:26:55;8.00;;;3.13;;
60730;SDS011;46580;52.114;11.674;2023-05-29T01:29:23;6.93;;;2.87;;
60730;SDS011;46580;52.114;11.674;2023-05-29T01:31:48;7.80;;;3.40;;
60730;SDS011;46580;52.114;11.674;2023-05-29T01:34:14;5.37;;;2.73;;
60730;SDS011;46580;52.114;11.674;2023-05-29T01:36:40;5.10;;;2.57;;
60730;SDS011;46580;52.114;11.674;2023-05-29T01:39:06;5.30;;;3.00;;
60730;SDS011;46580;52.114;11.674;2023-05-29T01:41:35;8.47;;;3.10;;
60730;SDS011;46580;52.114;11.674;2023-05-29T01:44:02;9.67;;;3.90;;
60730;SDS011;46580;52.114;11.674;2023-05-29T01:46:36;8.73;;;3.30;;
60730;SDS011;46580;52.114;11.674;2023-05-29T01:49:02;8.50;;;3.30;;
60730;SDS011;46580;52.114;11.674;2023-05-29T01:51:28;7.10;;;3.43;;
60730;SDS011;46580;52.114;11.674;2023-05-29T01:53:53;7.20;;;3.03;;
60730;SDS011;46580;52.114;11.674;2023-05-29T01:56:19;7.63;;;3.70;;
60730;SDS011;46580;52.114;11.674;2023-05-29T01:58:46;9.60;;;3.17;;
60730;SDS011;46580;52.114;11.674;2023-05-29T02:01:17;6.37;;;3.77;;
60730;SDS011;46580;52.114;11.674;2023-05-29T02:03:44;9.17;;;3.97;;
60730;SDS011;46580;52.114;11.674;2023-05-29T02:06:09;9.47;;;3.90;;
60730;SDS011;46580;52.114;11.674;2023-05-29T02:08:40;7.07;;;4.37;;
60730;SDS011;46580;52.114;11.674;2023-05-29T02:11:06;8.47;;;4.17;;
60730;SDS011;46580;52.114;11.674;2023-05-29T02:13:34;9.53;;;4.03;;
60730;SDS011;46580;52.114;11.674;2023-05-29T02:16:00;9.33;;;3.83;;
60730;SDS011;46580;52.114;11.674;2023-05-29T02:18:27;10.90;;;4.30;;
60730;SDS011;46580;52.114;11.674;2023-05-29T02:20:53;9.03;;;4.53;;
60730;SDS011;46580;52.114;11.674;2023-05-29T02:23:27;5.73;;;3.63;;
60730;SDS011;46580;52.114;11.674;2023-05-29T02:25:53;8.77;;;4.00;;
60730;SDS011;46580;52.114;11.674;2023-05-29T02:28:18;8.43;;;4.40;;
60730;SDS011;46580;52.114;11.674;2023-05-29T02:30:47;6.70;;;3.80;;
60730;SDS011;46580;52.114;11.674;2023-05-29T02:33:12;10.53;;;3.83;;
60730;SDS011;46580;52.114;11.674;2023-05-29T02:35:38;6.87;;;3.57;;
60730;SDS011;46580;52.114;11.674;2023-05-29T02:38:03;5.77;;;3.60;;
60730;SDS011;46580;52.114;11.674;2023-05-29T02:40:29;6.80;;;3.50;;
60730;SDS011;46580;52.114;11.674;2023-05-29T02:42:54;6.53;;;3.50;;
60730;SDS011;46580;52.114;11.674;2023-05-29T02:45:20;7.20;;;3.23;;
60730;SDS011;46580;52.114;11.674;2023-05-29T02:47:54;5.93;;;3.30;;
60730;SDS011;46580;52.114;11.674;2023-05-29T02:50:20;7.20;;;3.43;;
60730;SDS011;46580;52.114;11.674;2023-05-29T02:52:48;5.60;;;3.60;;
60730;SDS011;46580;52.114;11.674;2023-05-29T02:55:13;5.83;;;3.00;;
60730;SDS011;46580;52.114;11.674;2023-05-29T02:57:39;6.80;;;3.40;;
60730;SDS011;46580;52.114;11.674;2023-05-29T03:00:05;6.70;;;3.23;;
60730;SDS011;46580;52.114;11.674;2023-05-29T03:02:37;5.33;;;2.93;;
60730;SDS011;46580;52.114;11.674;2023-05-29T03:05:03;6.97;;;3.20;;
60730;SDS011;46580;52.114;11.674;2023-05-29T03:07:28;7.17;;;3.30;;
60730;SDS011;46580;52.114;11.674;2023-05-29T03:09:54;7.23;;;3.60;;
60730;SDS011;46580;52.114;11.674;2023-05-29T03:12:22;7.27;;;3.33;;
60730;SDS011;46580;52.114;11.674;2023-05-29T03:14:48;6.10;;;3.37;;
60730;SDS011;46580;52.114;11.674;2023-05-29T03:17:16;6.97;;;3.43;;
60730;SDS011;46580;52.114;11.674;2023-05-29T03:19:42;7.33;;;3.30;;
60730;SDS011;46580;52.114;11.674;2023-05-29T03:22:07;7.60;;;3.17;;
60730;SDS011;46580;52.114;11.674;2023-05-29T03:24:33;7.33;;;3.23;;
60730;SDS011;46580;52.114;11.674;2023-05-29T03:27:02;7.43;;;3.13;;
60730;SDS011;46580;52.114;11.674;2023-05-29T03:29:29;7.50;;;3.60;;
60730;SDS011;46580;52.114;11.674;2023-05-29T03:32:04;7.83;;;3.70;;
60730;SDS011;46580;52.114;11.674;2023-05-29T03:34:30;8.93;;;3.30;;
60730;SDS011;46580;52.114;11.674;2023-05-29T03:36:56;5.07;;;3.17;;
60730;SDS011;46580;52.114;11.674;2023-05-29T03:39:25;4.43;;;3.10;;
60730;SDS011;46580;52.114;11.674;2023-05-29T03:41:50;7.37;;;4.03;;
60730;SDS011;46580;52.114;11.674;2023-05-29T03:44:16;6.70;;;3.60;;
60730;SDS011;46580;52.114;11.674;2023-05-29T03:46:41;6.10;;;2.77;;
60730;SDS011;46580;52.114;11.674;2023-05-29T03:49:16;4.23;;;3.13;;
60730;SDS011;46580;52.114;11.674;2023-05-29T03:51:48;6.37;;;3.00;;
60730;SDS011;46580;52.114;11.674;2023-05-29T03:54:14;6.17;;;2.93;;
60730;SDS011;46580;52.114;11.674;2023-05-29T03:56:40;6.17;;;2.97;;
60730;SDS011;46580;52.114;11.674;2023-05-29T03:59:08;5.60;;;3.20;;
60730;SDS011;46580;52.114;11.674;2023-05-29T04:01:39;6.63;;;3.07;;
60730;SDS011;46580;52.114;11.674;2023-05-29T04:04:05;4.83;;;3.00;;
60730;SDS011;46580;52.114;11.674;2023-05-29T04:06:33;10.00;;;2.60;;
60730;SDS011;46580;52.114;11.674;2023-05-29T04:09:06;6.23;;;3.17;;
60730;SDS011;46580;52.114;11.674;2023-05-29T04:11:36;8.53;;;2.80;;
60730;SDS011;46580;52.114;11.674;2023-05-29T04:14:04;6.47;;;2.97;;
60730;SDS011;46580;52.114;11.674;2023-05-29T04:16:29;6.70;;;3.03;;
60730;SDS011;46580;52.114;11.674;2023-05-29T04:18:55;4.30;;;2.63;;
60730;SDS011;46580;52.114;11.674;2023-05-29T04:21:21;6.23;;;3.33;;
60730;SDS011;46580;52.114;11.674;2023-05-29T04:23:57;4.80;;;3.43;;
60730;SDS011;46580;52.114;11.674;2023-05-29T04:26:24;8.13;;;3.53;;
60730;SDS011;46580;52.114;11.674;2023-05-29T04:28:52;6.43;;;3.07;;
60730;SDS011;46580;52.114;11.674;2023-05-29T04:31:23;5.13;;;3.10;;
60730;SDS011;46580;52.114;11.674;2023-05-29T04:33:52;6.50;;;3.57;;
60730;SDS011;46580;52.114;11.674;2023-05-29T04:36:23;4.53;;;2.80;;
60730;SDS011;46580;52.114;11.674;2023-05-29T04:38:52;8.10;;;3.40;;
60730;SDS011;46580;52.114;11.674;2023-05-29T04:41:23;4.97;;;2.90;;
60730;SDS011;46580;52.114;11.674;2023-05-29T04:44:09;5.30;;;3.00;;
60730;SDS011;46580;52.114;11.674;2023-05-29T04:46:39;6.70;;;3.67;;
60730;SDS011;46580;52.114;11.674;2023-05-29T04:49:09;4.00;;;2.73;;
60730;SDS011;46580;52.114;11.674;2023-05-29T04:51:35;9.47;;;3.23;;
60730;SDS011;46580;52.114;11.674;2023-05-29T04:54:01;4.57;;;2.93;;
60730;SDS011;46580;52.114;11.674;2023-05-29T04:56:30;6.47;;;3.03;;
60730;SDS011;46580;52.114;11.674;2023-05-29T04:58:55;6.47;;;2.83;;
60730;SDS011;46580;52.114;11.674;2023-05-29T05:01:23;6.13;;;3.40;;
60730;SDS011;46580;52.114;11.674;2023-05-29T05:03:54;4.83;;;2.57;;
60730;SDS011;46580;52.114;11.674;2023-05-29T05:06:21;7.27;;;3.50;;
60730;SDS011;46580;52.114;11.674;2023-05-29T05:08:47;5.87;;;3.10;;
60730;SDS011;46580;52.114;11.674;2023-05-29T05:11:16;6.50;;;3.27;;
60730;SDS011;46580;52.114;11.674;2023-05-29T05:13:42;9.13;;;3.23;;
60730;SDS011;46580;52.114;11.674;2023-05-29T05:16:14;5.33;;;2.83;;
60730;SDS011;46580;52.114;11.674;2023-05-29T05:18:43;5.90;;;2.83;;
60730;SDS011;46580;52.114;11.674;2023-05-29T05:21:09;3.77;;;2.80;;
60730;SDS011;46580;52.114;11.674;2023-05-29T05:23:35;4.73;;;3.03;;
60730;SDS011;46580;52.114;11.674;2023-05-29T05:26:02;4.60;;;2.53;;
60730;SDS011;46580;52.114;11.674;2023-05-29T05:28:28;5.40;;;2.70;;
60730;SDS011;46580;52.114;11.674;2023-05-29T05:30:53;7.57;;;3.37;;
60730;SDS011;46580;52.114;11.674;2023-05-29T05:33:28;5.03;;;2.70;;
60730;SDS011;46580;52.114;11.674;2023-05-29T05:35:58;6.83;;;3.53;;
60730;SDS011;46580;52.114;11.674;2023-05-29T05:38:24;4.50;;;2.90;;
60730;SDS011;46580;52.114;11.674;2023-05-29T05:40:49;4.33;;;2.80;;
60730;SDS011;46580;52.114;11.674;2023-05-29T05:43:18;5.77;;;3.03;;
60730;SDS011;46580;52.114;11.674;2023-05-29T05:45:43;4.30;;;2.73;;
60730;SDS011;46580;52.114;11.674;2023-05-29T05:48:11;5.93;;;3.37;;
60730;SDS011;46580;52.114;11.674;2023-05-29T05:50:37;5.27;;;3.10;;
60730;SDS011;46580;52.114;11.674;2023-05-29T05:53:08;5.13;;;2.73;;
60730;SDS011;46580;52.114;11.674;2023-05-29T05:55:33;7.37;;;3.20;;
60730;SDS011;46580;52.114;11.674;2023-05-29T05:57:59;5.60;;;2.87;;
60730;SDS011;46580;52.114;11.674;2023-05-29T06:00:24;5.87;;;2.73;;
60730;SDS011;46580;52.114;11.674;2023-05-29T06:02:50;7.93;;;2.80;;
60730;SDS011;46580;52.114;11.674;2023-05-29T06:05:16;7.43;;;2.90;;
60730;SDS011;46580;52.114;11.674;2023-05-29T06:07:41;5.37;;;2.80;;
60730;SDS011;46580;52.114;11.674;2023-05-29T06:10:07;4.10;;;2.40;;
60730;SDS011;46580;52.114;11.674;2023-05-29T06:12:33;5.73;;;2.60;;
60730;SDS011;46580;52.114;11.674;2023-05-29T06:14:59;4.90;;;2.87;;
60730;SDS011;46580;52.114;11.674;2023-05-29T06:17:24;4.17;;;2.70;;
60730;SDS011;46580;52.114;11.674;2023-05-29T06:19:50;5.17;;;2.70;;
60730;SDS011;46580;52.114;11.674;2023-05-29T06:22:15;5.40;;;3.20;;
60730;SDS011;46580;52.114;11.674;2023-05-29T06:24:41;6.80;;;2.90;;
60730;SDS011;46580;52.114;11.674;2023-05-29T06:27:06;5.53;;;2.97;;
60730;SDS011;46580;52.114;11.674;2023-05-29T06:29:32;7.07;;;3.40;;
60730;SDS011;46580;52.114;11.674;2023-05-29T06:31:58;5.87;;;3.13;;
60730;SDS011;46580;52.114;11.674;2023-05-29T06:34:23;5.07;;;2.97;;
60730;SDS011;46580;52.114;11.674;2023-05-29T06:36:49;5.07;;;2.50;;
60730;SDS011;46580;52.114;11.674;2023-05-29T06:39:14;5.03;;;2.90;;
60730;SDS011;46580;52.114;11.674;2023-05-29T06:41:40;8.03;;;3.03;;
60730;SDS011;46580;52.114;11.674;2023-05-29T06:44:05;5.40;;;2.73;;
60730;SDS011;46580;52.114;11.674;2023-05-29T06:46:31;5.87;;;2.43;;
60730;SDS011;46580;52.114;11.674;2023-05-29T06:48:56;8.40;;;3.00;;
60730;SDS011;46580;52.114;11.674;2023-05-29T06:51:21;5.23;;;2.30;;
60730;SDS011;46580;52.114;11.674;2023-05-29T06:53:47;4.73;;;2.80;;
60730;SDS011;46580;52.114;11.674;2023-05-29T06:56:12;4.93;;;2.53;;
60730;SDS011;46580;52.114;11.674;2023-05-29T06:58:38;6.13;;;2.47;;
60730;SDS011;46580;52.114;11.674;2023-05-29T07:01:04;4.27;;;2.10;;
60730;SDS011;46580;52.114;11.674;2023-05-29T07:03:30;9.97;;;2.63;;
60730;SDS011;46580;52.114;11.674;2023-05-29T07:05:55;3.80;;;2.60;;
60730;SDS011;46580;52.114;11.674;2023-05-29T07:08:21;4.07;;;2.27;;
60730;SDS011;46580;52.114;11.674;2023-05-29T07:10:46;7.87;;;2.43;;
60730;SDS011;46580;52.114;11.674;2023-05-29T07:13:14;6.97;;;2.40;;
60730;SDS011;46580;52.114;11.674;2023-05-29T07:15:40;6.27;;;2.50;;
60730;SDS011;46580;52.114;11.674;2023-05-29T07:18:05;7.03;;;2.23;;
60730;SDS011;46580;52.114;11.674;2023-05-29T07:20:30;4.97;;;2.50;;
60730;SDS011;46580;52.114;11.674;2023-05-29T07:22:55;3.90;;;1.70;;
60730;SDS011;46580;52.114;11.674;2023-05-29T07:25:21;3.63;;;1.80;;
60730;SDS011;46580;52.114;11.674;2023-05-29T07:27:46;3.47;;;2.13;;
60730;SDS011;46580;52.114;11.674;2023-05-29T07:30:12;7.30;;;2.70;;
60730;SDS011;46580;52.114;11.674;2023-05-29T07:32:37;4.77;;;2.20;;
60730;SDS011;46580;52.114;11.674;2023-05-29T07:35:03;4.17;;;2.17;;
60730;SDS011;46580;52.114;11.674;2023-05-29T07:37:28;3.10;;;1.77;;
60730;SDS011;46580;52.114;11.674;2023-05-29T07:39:55;3.53;;;1.97;;
60730;SDS011;46580;52.114;11.674;2023-05-29T07:42:20;6.23;;;2.00;;
60730;SDS011;46580;52.114;11.674;2023-05-29T07:44:46;3.77;;;1.63;;
60730;SDS011;46580;52.114;11.674;2023-05-29T07:47:13;5.97;;;2.27;;
60730;SDS011;46580;52.114;11.674;2023-05-29T07:49:38;3.30;;;2.10;;
60730;SDS011;46580;52.114;11.674;2023-05-29T07:52:04;4.30;;;1.83;;
60730;SDS011;46580;52.114;11.674;2023-05-29T07:54:30;5.07;;;1.97;;
60730;SDS011;46580;52.114;11.674;2023-05-29T07:56:58;4.90;;;1.50;;
60730;SDS011;46580;52.114;11.674;2023-05-29T07:59:24;6.40;;;2.33;;
60730;SDS011;46580;52.114;11.674;2023-05-29T08:01:50;2.67;;;1.47;;
60730;SDS011;46580;52.114;11.674;2023-05-29T08:04:15;2.73;;;1.60;;
60730;SDS011;46580;52.114;11.674;2023-05-29T08:06:41;3.27;;;1.53;;
60730;SDS011;46580;52.114;11.674;2023-05-29T08:09:10;3.27;;;1.70;;
60730;SDS011;46580;52.114;11.674;2023-05-29T08:11:36;3.67;;;1.80;;
60730;SDS011;46580;52.114;11.674;2023-05-29T08:14:02;4.90;;;1.97;;
60730;SDS011;46580;52.114;11.674;2023-05-29T08:16:31;3.23;;;1.87;;
60730;SDS011;46580;52.114;11.674;2023-05-29T08:18:57;3.30;;;1.70;;
60730;SDS011;46580;52.114;11.674;2023-05-29T08:21:22;2.40;;;2.00;;
60730;SDS011;46580;52.114;11.674;2023-05-29T08:23:48;3.63;;;1.80;;
60730;SDS011;46580;52.114;11.674;2023-05-29T08:26:14;7.57;;;2.30;;
60730;SDS011;46580;52.114;11.674;2023-05-29T08:28:40;2.90;;;1.87;;
60730;SDS011;46580;52.114;11.674;2023-05-29T08:31:05;7.33;;;1.70;;
60730;SDS011;46580;52.114;11.674;2023-05-29T08:33:31;5.63;;;1.87;;
60730;SDS011;46580;52.114;11.674;2023-05-29T08:36:00;2.67;;;1.47;;
60730;SDS011;46580;52.114;11.674;2023-05-29T08:38:25;6.43;;;1.87;;
60730;SDS011;46580;52.114;11.674;2023-05-29T08:40:54;2.07;;;1.70;;
60730;SDS011;46580;52.114;11.674;2023-05-29T08:43:23;3.03;;;1.57;;
60730;SDS011;46580;52.114;11.674;2023-05-29T08:45:53;2.97;;;1.50;;
60730;SDS011;46580;52.114;11.674;2023-05-29T08:48:22;3.80;;;2.13;;
60730;SDS011;46580;52.114;11.674;2023-05-29T08:50:50;3.53;;;1.93;;
60730;SDS011;46580;52.114;11.674;2023-05-29T08:53:18;4.03;;;2.27;;
60730;SDS011;46580;52.114;11.674;2023-05-29T08:55:44;5.10;;;1.93;;
60730;SDS011;46580;52.114;11.674;2023-05-29T08:58:12;2.83;;;1.73;;
60730;SDS011;46580;52.114;11.674;2023-05-29T09:00:38;4.77;;;1.93;;
60730;SDS011;46580;52.114;11.674;2023-05-29T09:03:05;4.37;;;2.10;;
60730;SDS011;46580;52.114;11.674;2023-05-29T09:05:32;4.47;;;1.60;;
60730;SDS011;46580;52.114;11.674;2023-05-29T09:07:57;5.77;;;1.80;;
60730;SDS011;46580;52.114;11.674;2023-05-29T09:10:23;5.57;;;2.20;;
60730;SDS011;46580;52.114;11.674;2023-05-29T09:12:50;3.00;;;1.70;;
60730;SDS011;46580;52.114;11.674;2023-05-29T09:15:19;4.00;;;1.67;;
60730;SDS011;46580;52.114;11.674;2023-05-29T09:17:55;3.17;;;1.93;;
60730;SDS011;46580;52.114;11.674;2023-05-29T09:20:24;3.83;;;1.93;;
60730;SDS011;46580;52.114;11.674;2023-05-29T09:23:00;6.30;;;2.07;;
60730;SDS011;46580;52.114;11.674;2023-05-29T09:25:30;3.40;;;1.77;;
60730;SDS011;46580;52.114;11.674;2023-05-29T09:28:01;4.70;;;2.00;;
60730;SDS011;46580;52.114;11.674;2023-05-29T09:30:40;4.97;;;1.73;;
60730;SDS011;46580;52.114;11.674;2023-05-29T09:33:12;4.73;;;1.70;;
60730;SDS011;46580;52.114;11.674;2023-05-29T09:38:10;6.00;;;2.20;;
60730;SDS011;46580;52.114;11.674;2023-05-29T09:40:38;2.97;;;1.87;;
60730;SDS011;46580;52.114;11.674;2023-05-29T09:43:15;4.70;;;2.37;;
60730;SDS011;46580;52.114;11.674;2023-05-29T09:45:45;4.47;;;2.20;;
60730;SDS011;46580;52.114;11.674;2023-05-29T09:48:18;5.50;;;2.10;;
60730;SDS011;46580;52.114;11.674;2023-05-29T09:50:47;5.83;;;2.10;;
60730;SDS011;46580;52.114;11.674;2023-05-29T09:53:17;6.33;;;2.60;;
60730;SDS011;46580;52.114;11.674;2023-05-29T09:55:44;6.47;;;2.57;;
60730;SDS011;46580;52.114;11.674;2023-05-29T09:58:13;7.07;;;2.43;;
60730;SDS011;46580;52.114;11.674;2023-05-29T10:00:40;7.17;;;2.30;;
60730;SDS011;46580;52.114;11.674;2023-05-29T10:03:06;4.53;;;2.30;;
60730;SDS011;46580;52.114;11.674;2023-05-29T10:05:32;4.57;;;2.23;;
60730;SDS011;46580;52.114;11.674;2023-05-29T10:07:57;4.53;;;2.60;;
60730;SDS011;46580;52.114;11.674;2023-05-29T10:10:24;3.63;;;2.10;;
60730;SDS011;46580;52.114;11.674;2023-05-29T10:12:51;6.03;;;2.23;;
60730;SDS011;46580;52.114;11.674;2023-05-29T10:15:18;6.20;;;2.47;;
60730;SDS011;46580;52.114;11.674;2023-05-29T10:17:56;7.10;;;1.87;;
60730;SDS011;46580;52.114;11.674;2023-05-29T10:20:22;7.30;;;2.37;;
60730;SDS011;46580;52.114;11.674;2023-05-29T10:22:50;4.70;;;1.90;;
60730;SDS011;46580;52.114;11.674;2023-05-29T10:25:16;3.53;;;2.03;;
60730;SDS011;46580;52.114;11.674;2023-05-29T10:27:42;4.73;;;2.00;;
60730;SDS011;46580;52.114;11.674;2023-05-29T10:30:18;5.63;;;2.47;;
60730;SDS011;46580;52.114;11.674;2023-05-29T10:35:22;6.93;;;2.50;;
60730;SDS011;46580;52.114;11.674;2023-05-29T10:38:02;6.07;;;2.33;;
60730;SDS011;46580;52.114;11.674;2023-05-29T10:40:34;6.33;;;2.20;;
60730;SDS011;46580;52.114;11.674;2023-05-29T10:42:59;5.37;;;2.00;;
60730;SDS011;46580;52.114;11.674;2023-05-29T10:46:10;5.30;;;1.67;;
60730;SDS011;46580;52.114;11.674;2023-05-29T10:50:38;4.43;;;1.93;;
60730;SDS011;46580;52.114;11.674;2023-05-29T10:53:06;2.40;;;1.63;;
60730;SDS011;46580;52.114;11.674;2023-05-29T10:55:34;5.97;;;2.07;;
60730;SDS011;46580;52.114;11.674;2023-05-29T11:00:58;9.70;;;2.10;;
60730;SDS011;46580;52.114;11.674;2023-05-29T11:03:24;5.00;;;2.30;;
60730;SDS011;46580;52.114;11.674;2023-05-29T11:05:56;2.63;;;1.77;;
60730;SDS011;46580;52.114;11.674;2023-05-29T11:11:00;5.83;;;2.07;;
60730;SDS011;46580;52.114;11.674;2023-05-29T11:13:35;6.30;;;2.20;;
60730;SDS011;46580;52.114;11.674;2023-05-29T11:16:13;7.10;;;2.40;;
60730;SDS011;46580;52.114;11.674;2023-05-29T11:18:44;4.40;;;2.03;;
60730;SDS011;46580;52.114;11.674;2023-05-29T11:21:15;5.20;;;1.90;;
60730;SDS011;46580;52.114;11.674;2023-05-29T11:23:46;4.87;;;2.13;;
60730;SDS011;46580;52.114;11.674;2023-05-29T11:26:12;7.97;;;2.03;;
60730;SDS011;46580;52.114;11.674;2023-05-29T11:28:38;9.13;;;2.10;;
60730;SDS011;46580;52.114;11.674;2023-05-29T11:31:07;6.37;;;2.33;;
60730;SDS011;46580;52.114;11.674;2023-05-29T11:33:33;5.17;;;2.00;;
60730;SDS011;46580;52.114;11.674;2023-05-29T11:36:00;3.60;;;1.70;;
60730;SDS011;46580;52.114;11.674;2023-05-29T11:38:28;4.10;;;1.80;;
60730;SDS011;46580;52.114;11.674;2023-05-29T11:40:53;4.10;;;2.10;;
60730;SDS011;46580;52.114;11.674;2023-05-29T11:43:19;5.43;;;2.60;;
60730;SDS011;46580;52.114;11.674;2023-05-29T11:45:44;5.70;;;1.93;;
60730;SDS011;46580;52.114;11.674;2023-05-29T11:48:10;4.23;;;2.10;;
60730;SDS011;46580;52.114;11.674;2023-05-29T11:50:35;4.50;;;2.07;;
60730;SDS011;46580;52.114;11.674;2023-05-29T11:53:01;5.57;;;2.30;;
60730;SDS011;46580;52.114;11.674;2023-05-29T11:55:27;5.70;;;2.20;;
60730;SDS011;46580;52.114;11.674;2023-05-29T11:57:56;6.00;;;2.70;;
60730;SDS011;46580;52.114;11.674;2023-05-29T12:00:22;3.97;;;2.13;;
60730;SDS011;46580;52.114;11.674;2023-05-29T12:02:47;5.37;;;2.37;;
60730;SDS011;46580;52.114;11.674;2023-05-29T12:05:13;3.67;;;2.40;;
60730;SDS011;46580;52.114;11.674;2023-05-29T12:08:00;3.80;;;2.00;;
60730;SDS011;46580;52.114;11.674;2023-05-29T12:10:29;5.43;;;2.33;;
60730;SDS011;46580;52.114;11.674;2023-05-29T12:12:58;4.73;;;2.10;;
60730;SDS011;46580;52.114;11.674;2023-05-29T12:15:24;5.27;;;2.33;;
60730;SDS011;46580;52.114;11.674;2023-05-29T12:17:53;5.53;;;2.30;;
60730;SDS011;46580;52.114;11.674;2023-05-29T12:20:19;8.27;;;2.30;;
60730;SDS011;46580;52.114;11.674;2023-05-29T12:22:47;5.93;;;2.17;;
60730;SDS011;46580;52.114;11.674;2023-05-29T12:25:16;6.17;;;2.30;;
60730;SDS011;46580;52.114;11.674;2023-05-29T12:27:44;6.53;;;1.97;;
60730;SDS011;46580;52.114;11.674;2023-05-29T12:30:19;10.10;;;2.50;;
60730;SDS011;46580;52.114;11.674;2023-05-29T12:32:46;4.27;;;2.13;;
60730;SDS011;46580;52.114;11.674;2023-05-29T12:35:25;5.90;;;2.13;;
60730;SDS011;46580;52.114;11.674;2023-05-29T12:37:57;4.90;;;1.90;;
60730;SDS011;46580;52.114;11.674;2023-05-29T12:40:24;6.70;;;2.40;;
60730;SDS011;46580;52.114;11.674;2023-05-29T12:42:59;5.90;;;2.23;;
60730;SDS011;46580;52.114;11.674;2023-05-29T12:45:26;3.50;;;2.13;;
60730;SDS011;46580;52.114;11.674;2023-05-29T12:50:24;5.40;;;2.30;;
60730;SDS011;46580;52.114;11.674;2023-05-29T12:52:57;5.83;;;2.30;;
60730;SDS011;46580;52.114;11.674;2023-05-29T12:55:22;4.37;;;2.03;;
60730;SDS011;46580;52.114;11.674;2023-05-29T12:57:47;6.90;;;2.47;;
60730;SDS011;46580;52.114;11.674;2023-05-29T13:00:13;7.10;;;2.50;;
60730;SDS011;46580;52.114;11.674;2023-05-29T13:02:38;5.40;;;2.47;;
60730;SDS011;46580;52.114;11.674;2023-05-29T13:05:04;7.87;;;2.10;;
60730;SDS011;46580;52.114;11.674;2023-05-29T13:07:30;9.27;;;2.27;;
60730;SDS011;46580;52.114;11.674;2023-05-29T13:09:56;8.47;;;2.70;;
60730;SDS011;46580;52.114;11.674;2023-05-29T13:12:21;5.70;;;2.33;;
60730;SDS011;46580;52.114;11.674;2023-05-29T13:14:46;3.63;;;1.87;;
60730;SDS011;46580;52.114;11.674;2023-05-29T13:17:12;7.20;;;2.30;;
60730;SDS011;46580;52.114;11.674;2023-05-29T13:19:37;6.47;;;2.33;;
60730;SDS011;46580;52.114;11.674;2023-05-29T13:22:02;5.33;;;1.90;;
60730;SDS011;46580;52.114;11.674;2023-05-29T13:24:27;4.33;;;2.40;;
60730;SDS011;46580;52.114;11.674;2023-05-29T13:26:53;5.13;;;2.90;;
60730;SDS011;46580;52.114;11.674;2023-05-29T13:29:18;4.80;;;2.03;;
60730;SDS011;46580;52.114;11.674;2023-05-29T13:31:44;3.20;;;1.87;;
60730;SDS011;46580;52.114;11.674;2023-05-29T13:34:10;3.10;;;1.83;;
60730;SDS011;46580;52.114;11.674;2023-05-29T13:36:35;5.10;;;2.43;;
60730;SDS011;46580;52.114;11.674;2023-05-29T13:39:01;4.17;;;2.27;;
60730;SDS011;46580;52.114;11.674;2023-05-29T13:41:26;4.57;;;2.13;;
60730;SDS011;46580;52.114;11.674;2023-05-29T13:43:51;7.83;;;2.87;;
60730;SDS011;46580;52.114;11.674;2023-05-29T13:46:16;8.53;;;2.20;;
60730;SDS011;46580;52.114;11.674;2023-05-29T13:48:42;3.43;;;2.23;;
60730;SDS011;46580;52.114;11.674;2023-05-29T13:51:08;2.70;;;1.67;;
60730;SDS011;46580;52.114;11.674;2023-05-29T13:53:33;7.07;;;2.77;;
60730;SDS011;46580;52.114;11.674;2023-05-29T13:55:58;5.37;;;2.23;;
60730;SDS011;46580;52.114;11.674;2023-05-29T13:58:23;3.90;;;1.93;;
60730;SDS011;46580;52.114;11.674;2023-05-29T14:00:49;4.67;;;2.00;;
60730;SDS011;46580;52.114;11.674;2023-05-29T14:03:14;4.73;;;2.37;;
60730;SDS011;46580;52.114;11.674;2023-05-29T14:05:39;5.67;;;1.83;;
60730;SDS011;46580;52.114;11.674;2023-05-29T14:08:04;6.00;;;2.00;;
60730;SDS011;46580;52.114;11.674;2023-05-29T14:10:30;4.77;;;1.83;;
60730;SDS011;46580;52.114;11.674;2023-05-29T14:12:55;6.00;;;1.93;;
60730;SDS011;46580;52.114;11.674;2023-05-29T14:15:20;4.67;;;1.70;;
60730;SDS011;46580;52.114;11.674;2023-05-29T14:17:45;3.77;;;1.53;;
60730;SDS011;46580;52.114;11.674;2023-05-29T14:20:11;4.00;;;1.90;;
60730;SDS011;46580;52.114;11.674;2023-05-29T14:22:36;8.30;;;2.37;;
60730;SDS011;46580;52.114;11.674;2023-05-29T14:25:02;4.03;;;1.87;;
60730;SDS011;46580;52.114;11.674;2023-05-29T14:27:29;6.27;;;2.17;;
60730;SDS011;46580;52.114;11.674;2023-05-29T14:29:54;7.43;;;2.33;;
60730;SDS011;46580;52.114;11.674;2023-05-29T14:32:20;4.57;;;1.87;;
60730;SDS011;46580;52.114;11.674;2023-05-29T14:34:45;7.07;;;2.50;;
60730;SDS011;46580;52.114;11.674;2023-05-29T14:37:11;5.43;;;1.77;;
60730;SDS011;46580;52.114;11.674;2023-05-29T14:39:36;2.63;;;1.60;;
60730;SDS011;46580;52.114;11.674;2023-05-29T14:42:01;4.77;;;1.73;;
60730;SDS011;46580;52.114;11.674;2023-05-29T14:44:27;4.17;;;1.60;;
60730;SDS011;46580;52.114;11.674;2023-05-29T14:46:52;4.37;;;1.77;;
60730;SDS011;46580;52.114;11.674;2023-05-29T14:49:17;2.33;;;1.60;;